createdAt,value
2017-02-27T00:00:33.126Z,0
2017-02-27T00:01:42.009Z,0
2017-02-27T00:02:50.920Z,0
2017-02-27T00:03:59.806Z,0
2017-02-27T00:05:08.695Z,0
2017-02-27T00:06:17.572Z,0
2017-02-27T00:07:26.457Z,0
2017-02-27T00:08:35.383Z,0
2017-02-27T00:09:44.282Z,0
2017-02-27T00:10:53.184Z,0
2017-02-27T00:12:02.095Z,0
2017-02-27T00:13:11.003Z,0
2017-02-27T00:14:19.908Z,0
2017-02-27T00:15:28.808Z,0
2017-02-27T00:16:37.720Z,0
2017-02-27T00:17:46.633Z,0
2017-02-27T00:18:55.523Z,0
2017-02-27T00:20:04.407Z,0
2017-02-27T00:21:13.324Z,0
2017-02-27T00:22:22.224Z,0
2017-02-27T00:23:31.123Z,0
2017-02-27T00:24:40.044Z,0
2017-02-27T00:25:48.946Z,0
2017-02-27T00:26:57.833Z,0
2017-02-27T00:28:06.731Z,0
2017-02-27T00:29:15.653Z,0
2017-02-27T00:30:24.530Z,0
2017-02-27T00:31:33.419Z,0
2017-02-27T00:32:42.331Z,0
2017-02-27T00:33:51.382Z,0
2017-02-27T00:35:00.707Z,0
2017-02-27T00:36:09.991Z,0
2017-02-27T00:37:18.906Z,0
2017-02-27T00:38:27.826Z,0
2017-02-27T00:39:36.744Z,0
2017-02-27T00:40:45.634Z,0
2017-02-27T00:41:54.519Z,0
2017-02-27T00:43:03.431Z,0
2017-02-27T00:44:12.735Z,0
2017-02-27T00:45:21.621Z,0
2017-02-27T00:46:30.515Z,0
2017-02-27T00:47:39.391Z,0
2017-02-27T00:48:48.277Z,0
2017-02-27T00:49:57.156Z,0
2017-02-27T00:51:06.040Z,0
2017-02-27T00:52:14.925Z,0
2017-02-27T00:53:23.804Z,0
2017-02-27T00:54:32.694Z,0
2017-02-27T00:55:41.597Z,0
2017-02-27T00:56:50.491Z,0
2017-02-27T00:57:59.390Z,0
2017-02-27T00:59:08.315Z,0
2017-02-27T01:00:17.203Z,0
2017-02-27T01:01:26.113Z,0
2017-02-27T01:02:34.993Z,0
2017-02-27T01:03:43.879Z,0
2017-02-27T01:04:52.778Z,0
2017-02-27T01:06:01.659Z,0
2017-02-27T01:07:10.550Z,0
2017-02-27T01:08:19.438Z,0
2017-02-27T01:09:28.339Z,0
2017-02-27T01:10:37.237Z,0
2017-02-27T01:11:46.125Z,0
2017-02-27T01:12:55.419Z,0
2017-02-27T01:14:04.322Z,0
2017-02-27T01:15:13.199Z,0
2017-02-27T01:16:22.085Z,0
2017-02-27T01:17:30.990Z,0
2017-02-27T01:18:40.278Z,0
2017-02-27T01:19:49.176Z,0
2017-02-27T01:20:58.059Z,0
2017-02-27T01:22:07.367Z,0
2017-02-27T01:23:16.278Z,0
2017-02-27T01:24:25.168Z,0
2017-02-27T01:25:34.074Z,0
2017-02-27T01:26:42.953Z,0
2017-02-27T01:27:51.837Z,0
2017-02-27T01:29:00.714Z,0
2017-02-27T01:30:09.604Z,0
2017-02-27T01:31:18.540Z,0
2017-02-27T01:32:27.419Z,0
2017-02-27T01:33:36.301Z,0
2017-02-27T01:34:45.181Z,0
2017-02-27T01:46:07.641Z,0
2017-02-27T01:52:43.890Z,0
2017-02-27T01:53:52.840Z,0
2017-02-27T01:55:01.727Z,0
2017-02-27T01:56:10.633Z,0
2017-02-27T01:57:19.528Z,0
2017-02-27T01:58:28.481Z,0
2017-02-27T01:59:37.369Z,0
2017-02-27T02:00:46.681Z,0
2017-02-27T02:01:55.581Z,0
2017-02-27T02:03:04.906Z,0
2017-02-27T02:04:13.816Z,0
2017-02-27T02:05:22.719Z,0
2017-02-27T02:06:31.604Z,0
2017-02-27T02:07:40.889Z,0
2017-02-27T02:08:49.824Z,0
2017-02-27T02:09:58.750Z,0
2017-02-27T02:11:07.686Z,0
2017-02-27T02:12:16.996Z,0
2017-02-27T02:13:25.910Z,0
2017-02-27T02:14:34.826Z,0
2017-02-27T02:15:43.721Z,0
2017-02-27T02:16:52.624Z,0
2017-02-27T02:18:01.506Z,0
2017-02-27T02:19:10.395Z,0
2017-02-27T02:20:19.279Z,0
2017-02-27T02:21:28.166Z,0
2017-02-27T02:22:37.058Z,0
2017-02-27T02:23:45.969Z,0
2017-02-27T02:24:54.882Z,0
2017-02-27T02:26:03.770Z,0
2017-02-27T02:27:12.657Z,0
2017-02-27T02:28:21.538Z,0
2017-02-27T02:29:30.428Z,0
2017-02-27T02:30:39.326Z,0
2017-02-27T02:31:48.636Z,0
2017-02-27T02:32:57.542Z,0
2017-02-27T02:34:06.440Z,0
2017-02-27T02:35:15.333Z,0
2017-02-27T02:36:24.250Z,0
2017-02-27T02:37:33.575Z,0
2017-02-27T02:38:42.851Z,0
2017-02-27T02:39:51.740Z,0
2017-02-27T02:41:00.649Z,0
2017-02-27T02:42:09.527Z,0
2017-02-27T02:43:18.412Z,0
2017-02-27T02:44:27.295Z,0
2017-02-27T02:45:36.191Z,0
2017-02-27T02:46:45.480Z,0
2017-02-27T02:47:54.388Z,0
2017-02-27T02:49:03.302Z,0
2017-02-27T02:50:12.201Z,0
2017-02-27T02:51:21.099Z,0
2017-02-27T02:52:30.018Z,0
2017-02-27T02:53:38.918Z,0
2017-02-27T02:54:47.815Z,0
2017-02-27T02:55:56.695Z,0
2017-02-27T02:57:05.608Z,0
2017-02-27T02:58:14.549Z,0
2017-02-27T02:59:23.875Z,0
2017-02-27T03:00:32.786Z,0
2017-02-27T03:01:42.112Z,0
2017-02-27T03:02:50.997Z,0
2017-02-27T03:03:59.885Z,0
2017-02-27T03:05:08.835Z,0
2017-02-27T03:06:17.904Z,0
2017-02-27T03:07:26.799Z,0
2017-02-27T03:08:35.684Z,0
2017-02-27T03:09:44.584Z,0
2017-02-27T03:10:53.490Z,0
2017-02-27T03:12:02.375Z,0
2017-02-27T03:13:11.269Z,0
2017-02-27T03:14:20.154Z,0
2017-02-27T03:15:29.039Z,0
2017-02-27T03:16:37.950Z,0
2017-02-27T03:17:46.854Z,0
2017-02-27T03:18:55.767Z,0
2017-02-27T03:20:04.664Z,0
2017-02-27T03:21:13.944Z,0
2017-02-27T03:22:22.830Z,0
2017-02-27T03:23:36.038Z,0
2017-02-27T03:24:49.263Z,0
2017-02-27T03:25:58.166Z,0
2017-02-27T03:27:07.064Z,0
2017-02-27T03:28:15.962Z,0
2017-02-27T03:29:24.854Z,0
2017-02-27T03:30:33.743Z,0
2017-02-27T03:31:42.649Z,0
2017-02-27T03:32:51.534Z,0
2017-02-27T03:34:00.423Z,0
2017-02-27T03:35:09.313Z,0
2017-02-27T03:36:18.233Z,0
2017-02-27T03:37:27.180Z,0
2017-02-27T03:38:36.073Z,0
2017-02-27T03:39:44.967Z,0
2017-02-27T03:40:53.878Z,0
2017-02-27T03:42:02.770Z,0
2017-02-27T03:43:11.713Z,0
2017-02-27T03:44:20.602Z,0
2017-02-27T03:45:29.882Z,0
2017-02-27T03:46:39.163Z,0
2017-02-27T03:47:48.095Z,0
2017-02-27T03:48:57.025Z,0
2017-02-27T03:50:06.322Z,0
2017-02-27T03:51:15.216Z,0
2017-02-27T03:52:24.119Z,0
2017-02-27T03:53:33.029Z,0
2017-02-27T03:54:41.926Z,0
2017-02-27T03:55:50.823Z,0
2017-02-27T03:56:59.717Z,0
2017-02-27T03:58:08.634Z,0
2017-02-27T03:59:17.516Z,0
2017-02-27T04:00:26.424Z,0
2017-02-27T04:01:35.320Z,0
2017-02-27T04:02:44.213Z,0
2017-02-27T04:03:53.108Z,0
2017-02-27T04:05:01.987Z,0
2017-02-27T04:06:11.284Z,0
2017-02-27T04:07:20.174Z,0
2017-02-27T04:08:29.071Z,0
2017-02-27T04:09:37.976Z,0
2017-02-27T04:10:46.892Z,0
2017-02-27T04:11:55.792Z,0
2017-02-27T04:13:04.695Z,0
2017-02-27T04:14:13.600Z,0
2017-02-27T04:15:22.503Z,0
2017-02-27T04:16:31.393Z,0
2017-02-27T04:17:40.273Z,0
2017-02-27T04:18:49.180Z,0
2017-02-27T04:19:58.072Z,0
2017-02-27T04:21:06.984Z,0
2017-02-27T04:22:15.874Z,0
2017-02-27T04:23:24.763Z,0
2017-02-27T04:24:33.668Z,0
2017-02-27T04:25:42.554Z,0
2017-02-27T04:26:51.457Z,0
2017-02-27T04:28:00.346Z,0
2017-02-27T04:29:09.227Z,0
2017-02-27T04:30:18.145Z,0
2017-02-27T04:31:27.051Z,0
2017-02-27T04:32:36.367Z,0
2017-02-27T04:33:45.268Z,0
2017-02-27T04:34:54.156Z,0
2017-02-27T04:36:03.043Z,0
2017-02-27T04:37:11.922Z,0
2017-02-27T04:38:20.826Z,0
2017-02-27T04:39:30.158Z,0
2017-02-27T04:40:39.079Z,0
2017-02-27T04:41:48.374Z,0
2017-02-27T04:42:57.273Z,0
2017-02-27T04:44:06.154Z,0
2017-02-27T04:45:15.045Z,0
2017-02-27T04:46:23.943Z,0
2017-02-27T04:47:32.851Z,0
2017-02-27T04:48:41.768Z,0
2017-02-27T04:49:50.667Z,0
2017-02-27T04:50:59.553Z,0
2017-02-27T04:52:08.454Z,0
2017-02-27T04:53:17.340Z,0
2017-02-27T04:54:26.235Z,0
2017-02-27T04:55:35.115Z,0
2017-02-27T04:56:44.017Z,0
2017-02-27T04:57:52.895Z,0
2017-02-27T04:59:01.785Z,0
2017-02-27T05:00:11.075Z,0
2017-02-27T05:01:19.948Z,0
2017-02-27T05:02:28.835Z,0
2017-02-27T05:03:37.739Z,0
2017-02-27T05:04:46.633Z,0
2017-02-27T05:05:55.521Z,0
2017-02-27T05:07:04.403Z,0
2017-02-27T05:08:13.301Z,0
2017-02-27T05:09:22.199Z,0
2017-02-27T05:10:31.089Z,0
2017-02-27T05:11:39.967Z,0
2017-02-27T05:12:48.843Z,0
2017-02-27T05:13:57.765Z,0
2017-02-27T05:15:06.655Z,0
2017-02-27T05:16:15.539Z,0
2017-02-27T05:17:24.436Z,0
2017-02-27T05:18:33.359Z,0
2017-02-27T05:19:42.251Z,0
2017-02-27T05:20:51.707Z,0
2017-02-27T05:22:01.000Z,0
2017-02-27T05:23:09.880Z,0
2017-02-27T05:24:18.761Z,0
2017-02-27T05:25:27.653Z,0
2017-02-27T05:26:36.949Z,0
2017-02-27T05:27:45.861Z,0
2017-02-27T05:28:54.747Z,0
2017-02-27T05:30:03.622Z,0
2017-02-27T05:31:12.508Z,0
2017-02-27T05:32:21.821Z,0
2017-02-27T05:33:30.737Z,0
2017-02-27T05:34:40.032Z,0
2017-02-27T05:35:48.920Z,0
2017-02-27T05:36:57.842Z,4
2017-02-27T05:38:07.126Z,4
2017-02-27T05:39:16.010Z,0
2017-02-27T05:40:24.887Z,4
2017-02-27T05:41:33.782Z,4
2017-02-27T05:42:42.677Z,4
2017-02-27T05:43:51.554Z,8
2017-02-27T05:45:00.439Z,4
2017-02-27T05:46:09.333Z,8
2017-02-27T05:47:18.203Z,8
2017-02-27T05:48:27.521Z,8
2017-02-27T05:49:36.394Z,12
2017-02-27T05:50:45.281Z,12
2017-02-27T05:51:54.160Z,12
2017-02-27T05:53:03.066Z,16
2017-02-27T05:54:11.981Z,20
2017-02-27T05:55:20.893Z,20
2017-02-27T05:56:29.793Z,24
2017-02-27T05:57:38.678Z,28
2017-02-27T05:58:47.592Z,28
2017-02-27T05:59:56.474Z,32
2017-02-27T06:01:05.768Z,36
2017-02-27T06:02:15.069Z,40
2017-02-27T06:03:23.961Z,44
2017-02-27T06:04:32.842Z,48
2017-02-27T06:05:42.132Z,48
2017-02-27T06:06:51.022Z,52
2017-02-27T06:07:59.924Z,60
2017-02-27T06:09:08.817Z,64
2017-02-27T06:10:17.706Z,68
2017-02-27T06:11:26.603Z,72
2017-02-27T06:12:35.476Z,76
2017-02-27T06:13:44.354Z,84
2017-02-27T06:14:53.253Z,92
2017-02-27T06:16:02.158Z,96
2017-02-27T06:17:11.055Z,100
2017-02-27T06:18:19.950Z,108
2017-02-27T06:19:29.257Z,112
2017-02-27T06:20:38.142Z,116
2017-02-27T06:21:47.037Z,124
2017-02-27T06:22:55.921Z,128
2017-02-27T06:24:04.852Z,132
2017-02-27T06:25:13.741Z,140
2017-02-27T06:26:22.683Z,144
2017-02-27T06:27:31.555Z,148
2017-02-27T06:28:40.453Z,152
2017-02-27T06:29:49.345Z,156
2017-02-27T06:30:58.241Z,164
2017-02-27T06:32:07.136Z,176
2017-02-27T06:33:16.041Z,180
2017-02-27T06:34:24.921Z,196
2017-02-27T06:35:33.801Z,208
2017-02-27T06:36:42.684Z,220
2017-02-27T06:37:51.577Z,224
2017-02-27T06:39:00.455Z,236
2017-02-27T06:40:09.369Z,240
2017-02-27T06:41:18.261Z,240
2017-02-27T06:42:27.155Z,236
2017-02-27T06:43:36.052Z,240
2017-02-27T06:44:44.950Z,232
2017-02-27T06:45:53.854Z,228
2017-02-27T06:47:02.756Z,232
2017-02-27T06:48:11.635Z,232
2017-02-27T06:49:20.951Z,240
2017-02-27T06:50:29.835Z,240
2017-02-27T06:51:38.739Z,244
2017-02-27T06:52:47.623Z,244
2017-02-27T06:53:56.510Z,252
2017-02-27T06:55:05.394Z,256
2017-02-27T06:56:14.679Z,264
2017-02-27T06:57:23.593Z,268
2017-02-27T06:58:32.896Z,276
2017-02-27T06:59:41.810Z,284
2017-02-27T07:00:50.722Z,288
2017-02-27T07:01:59.636Z,292
2017-02-27T07:03:08.960Z,296
2017-02-27T07:04:18.219Z,296
2017-02-27T07:05:27.133Z,304
2017-02-27T07:06:36.050Z,304
2017-02-27T07:07:44.946Z,308
2017-02-27T07:08:53.846Z,312
2017-02-27T07:10:02.747Z,316
2017-02-27T07:11:11.978Z,316
2017-02-27T07:12:20.891Z,316
2017-02-27T07:13:29.784Z,320
2017-02-27T07:14:38.699Z,320
2017-02-27T07:15:47.615Z,328
2017-02-27T07:16:56.908Z,332
2017-02-27T07:18:05.835Z,332
2017-02-27T07:19:14.750Z,336
2017-02-27T07:20:24.058Z,336
2017-02-27T07:21:32.944Z,328
2017-02-27T07:22:41.845Z,308
2017-02-27T07:23:50.760Z,308
2017-02-27T07:24:59.637Z,308
2017-02-27T07:26:08.538Z,364
2017-02-27T07:27:17.459Z,376
2017-02-27T07:28:26.378Z,368
2017-02-27T07:29:35.291Z,360
2017-02-27T07:30:44.580Z,368
2017-02-27T07:31:53.473Z,364
2017-02-27T07:33:02.386Z,340
2017-02-27T07:34:11.684Z,372
2017-02-27T07:35:20.574Z,384
2017-02-27T07:36:29.505Z,372
2017-02-27T07:37:38.411Z,364
2017-02-27T07:38:47.306Z,368
2017-02-27T07:39:56.228Z,380
2017-02-27T07:41:05.519Z,400
2017-02-27T07:42:14.400Z,408
2017-02-27T07:43:23.297Z,404
2017-02-27T07:44:32.194Z,376
2017-02-27T07:45:41.483Z,392
2017-02-27T07:46:50.388Z,384
2017-02-27T07:47:59.696Z,340
2017-02-27T07:49:08.581Z,392
2017-02-27T07:50:17.523Z,420
2017-02-27T07:51:26.460Z,424
2017-02-27T07:52:35.377Z,420
2017-02-27T07:53:44.297Z,432
2017-02-27T07:54:53.595Z,420
2017-02-27T07:56:02.895Z,412
2017-02-27T07:57:11.802Z,452
2017-02-27T07:58:20.738Z,456
2017-02-27T07:59:29.630Z,440
2017-02-27T08:00:38.530Z,464
2017-02-27T08:01:47.455Z,456
2017-02-27T08:02:56.354Z,444
2017-02-27T08:04:05.246Z,416
2017-02-27T08:05:14.191Z,404
2017-02-27T08:06:23.101Z,400
2017-02-27T08:07:32.027Z,400
2017-02-27T08:08:40.943Z,400
2017-02-27T08:09:49.829Z,404
2017-02-27T08:10:58.722Z,416
2017-02-27T08:12:07.630Z,440
2017-02-27T08:13:16.564Z,460
2017-02-27T08:14:25.461Z,464
2017-02-27T08:15:34.768Z,464
2017-02-27T08:16:43.661Z,464
2017-02-27T08:17:52.580Z,456
2017-02-27T08:19:01.491Z,456
2017-02-27T08:20:10.431Z,448
2017-02-27T08:21:19.333Z,444
2017-02-27T08:22:28.237Z,440
2017-02-27T08:23:37.157Z,432
2017-02-27T08:24:46.049Z,428
2017-02-27T08:25:54.963Z,416
2017-02-27T08:27:03.866Z,416
2017-02-27T08:28:12.759Z,412
2017-02-27T08:29:21.653Z,412
2017-02-27T08:30:30.534Z,412
2017-02-27T08:31:39.828Z,412
2017-02-27T08:32:48.736Z,408
2017-02-27T08:33:57.634Z,412
2017-02-27T08:35:06.522Z,412
2017-02-27T08:36:15.422Z,416
2017-02-27T08:37:24.301Z,416
2017-02-27T08:38:33.203Z,420
2017-02-27T08:39:42.132Z,420
2017-02-27T08:40:51.050Z,420
2017-02-27T08:41:59.948Z,420
2017-02-27T08:43:08.858Z,424
2017-02-27T08:44:17.759Z,420
2017-02-27T08:45:26.638Z,424
2017-02-27T08:46:35.550Z,424
2017-02-27T08:47:44.447Z,428
2017-02-27T08:48:53.355Z,432
2017-02-27T08:50:02.664Z,428
2017-02-27T08:51:11.585Z,428
2017-02-27T08:52:20.498Z,428
2017-02-27T08:53:29.780Z,428
2017-02-27T08:54:39.122Z,428
2017-02-27T08:55:48.042Z,432
2017-02-27T08:56:56.955Z,432
2017-02-27T08:58:05.839Z,436
2017-02-27T08:59:14.748Z,436
2017-02-27T09:00:23.634Z,436
2017-02-27T09:01:32.534Z,436
2017-02-27T09:02:41.840Z,440
2017-02-27T09:03:50.731Z,444
2017-02-27T09:04:59.616Z,444
2017-02-27T09:06:08.917Z,448
2017-02-27T09:07:18.207Z,448
2017-02-27T09:08:27.210Z,444
2017-02-27T09:09:36.104Z,448
2017-02-27T09:10:45.014Z,452
2017-02-27T09:11:53.903Z,452
2017-02-27T09:13:02.795Z,452
2017-02-27T09:14:11.677Z,452
2017-02-27T09:15:20.592Z,456
2017-02-27T09:16:29.482Z,456
2017-02-27T09:17:38.396Z,456
2017-02-27T09:18:47.295Z,456
2017-02-27T09:19:56.180Z,460
2017-02-27T09:21:05.085Z,460
2017-02-27T09:22:14.011Z,460
2017-02-27T09:23:22.917Z,460
2017-02-27T09:24:31.814Z,464
2017-02-27T09:25:40.716Z,464
2017-02-27T09:26:49.625Z,460
2017-02-27T09:27:58.527Z,468
2017-02-27T09:29:07.437Z,464
2017-02-27T09:30:16.719Z,464
2017-02-27T09:31:26.030Z,468
2017-02-27T09:32:34.941Z,468
2017-02-27T09:33:43.830Z,468
2017-02-27T09:34:52.716Z,472
2017-02-27T09:36:01.604Z,468
2017-02-27T09:37:10.912Z,472
2017-02-27T09:38:19.810Z,476
2017-02-27T09:39:28.732Z,476
2017-02-27T09:40:37.669Z,476
2017-02-27T09:41:46.995Z,480
2017-02-27T09:42:55.906Z,480
2017-02-27T09:44:04.784Z,480
2017-02-27T09:45:13.663Z,480
2017-02-27T09:46:22.543Z,484
2017-02-27T09:47:31.448Z,484
2017-02-27T09:48:40.378Z,484
2017-02-27T09:49:49.259Z,484
2017-02-27T09:50:58.153Z,488
2017-02-27T09:52:07.447Z,492
2017-02-27T09:53:16.342Z,440
2017-02-27T09:54:25.228Z,500
2017-02-27T09:55:34.116Z,508
2017-02-27T09:56:43.037Z,604
2017-02-27T09:57:51.954Z,604
2017-02-27T09:59:00.836Z,656
2017-02-27T10:00:09.747Z,572
2017-02-27T10:01:18.663Z,572
2017-02-27T10:02:27.954Z,720
2017-02-27T10:03:36.872Z,608
2017-02-27T10:04:45.811Z,516
2017-02-27T10:05:54.733Z,648
2017-02-27T10:07:03.635Z,732
2017-02-27T10:08:12.530Z,752
2017-02-27T10:09:21.409Z,824
2017-02-27T10:10:30.296Z,972
2017-02-27T10:11:39.199Z,812
2017-02-27T10:12:48.119Z,892
2017-02-27T10:13:57.033Z,732
2017-02-27T10:15:06.353Z,888
2017-02-27T10:16:15.279Z,712
2017-02-27T10:17:24.180Z,536
2017-02-27T10:18:33.060Z,688
2017-02-27T10:19:42.343Z,920
2017-02-27T10:20:51.232Z,1024
2017-02-27T10:22:00.153Z,896
2017-02-27T10:23:09.047Z,1132
2017-02-27T10:24:17.933Z,1296
2017-02-27T10:25:27.245Z,1032
2017-02-27T10:26:36.124Z,1128
2017-02-27T10:27:45.006Z,1256
2017-02-27T10:28:53.945Z,1288
2017-02-27T10:30:02.840Z,1064
2017-02-27T10:31:11.743Z,852
2017-02-27T10:32:20.658Z,924
2017-02-27T10:33:29.559Z,852
2017-02-27T10:34:38.473Z,696
2017-02-27T10:35:47.368Z,684
2017-02-27T10:36:56.254Z,536
2017-02-27T10:38:05.146Z,492
2017-02-27T10:39:14.035Z,504
2017-02-27T10:40:22.938Z,556
2017-02-27T10:41:32.228Z,784
2017-02-27T10:42:41.112Z,792
2017-02-27T10:43:50.016Z,756
2017-02-27T10:44:58.929Z,804
2017-02-27T10:46:07.847Z,1160
2017-02-27T10:47:16.738Z,1460
2017-02-27T10:48:25.628Z,1472
2017-02-27T10:49:34.512Z,1232
2017-02-27T10:50:43.415Z,1340
2017-02-27T10:51:52.341Z,1444
2017-02-27T10:53:01.221Z,1460
2017-02-27T10:54:10.127Z,1524
2017-02-27T10:55:19.018Z,1388
2017-02-27T10:56:28.319Z,1552
2017-02-27T10:57:37.224Z,1456
2017-02-27T10:58:46.120Z,1384
2017-02-27T10:59:55.036Z,1340
2017-02-27T11:01:03.948Z,1292
2017-02-27T11:02:12.871Z,1224
2017-02-27T11:03:21.772Z,1276
2017-02-27T11:04:30.692Z,1388
2017-02-27T11:05:39.584Z,1428
2017-02-27T11:06:48.483Z,1524
2017-02-27T11:07:57.380Z,1508
2017-02-27T11:09:06.299Z,1412
2017-02-27T11:10:15.189Z,1324
2017-02-27T11:11:24.097Z,1356
2017-02-27T11:12:33.411Z,1344
2017-02-27T11:13:42.308Z,1316
2017-02-27T11:14:51.618Z,1236
2017-02-27T11:16:00.518Z,1212
2017-02-27T11:17:09.422Z,1352
2017-02-27T11:18:18.308Z,1156
2017-02-27T11:19:27.208Z,1128
2017-02-27T11:20:36.111Z,1196
2017-02-27T11:21:45.027Z,1164
2017-02-27T11:22:53.945Z,1300
2017-02-27T11:24:03.242Z,1280
2017-02-27T11:25:12.167Z,1164
2017-02-27T11:26:21.081Z,1112
2017-02-27T11:27:30.006Z,1160
2017-02-27T11:28:38.942Z,1260
2017-02-27T11:29:47.853Z,1348
2017-02-27T11:30:56.745Z,1216
2017-02-27T11:32:05.626Z,1196
2017-02-27T11:33:14.504Z,1316
2017-02-27T11:34:23.804Z,1292
2017-02-27T11:35:32.991Z,1264
2017-02-27T11:36:41.873Z,1340
2017-02-27T11:37:50.773Z,1400
2017-02-27T11:39:00.080Z,1388
2017-02-27T11:40:09.006Z,1332
2017-02-27T11:41:17.915Z,1368
2017-02-27T11:42:26.819Z,1368
2017-02-27T11:43:35.718Z,1416
2017-02-27T11:44:44.617Z,1516
2017-02-27T11:45:53.504Z,1440
2017-02-27T11:47:02.388Z,1388
2017-02-27T11:48:11.289Z,1368
2017-02-27T11:49:20.186Z,1376
2017-02-27T11:50:29.484Z,1340
2017-02-27T11:51:38.364Z,1360
2017-02-27T11:52:47.244Z,1360
2017-02-27T11:53:56.132Z,1344
2017-02-27T11:55:05.436Z,1352
2017-02-27T11:56:14.349Z,1396
2017-02-27T11:57:23.268Z,1372
2017-02-27T11:58:32.179Z,1400
2017-02-27T11:59:41.118Z,1404
2017-02-27T12:00:50.029Z,1392
2017-02-27T12:01:59.346Z,1320
2017-02-27T12:03:09.051Z,1248
2017-02-27T12:04:17.933Z,1288
2017-02-27T12:05:26.827Z,1164
2017-02-27T12:06:35.728Z,1236
2017-02-27T12:07:44.625Z,1212
2017-02-27T12:08:53.558Z,1112
2017-02-27T12:10:02.858Z,1068
2017-02-27T12:11:11.780Z,1020
2017-02-27T12:12:20.695Z,1136
2017-02-27T12:13:29.586Z,1176
2017-02-27T12:14:38.474Z,1092
2017-02-27T12:15:47.356Z,1152
2017-02-27T12:16:56.234Z,1128
2017-02-27T12:18:05.124Z,1068
2017-02-27T12:19:14.024Z,1104
2017-02-27T12:20:23.328Z,1092
2017-02-27T12:21:32.253Z,1148
2017-02-27T12:22:41.146Z,1080
2017-02-27T12:23:50.035Z,1136
2017-02-27T12:24:58.959Z,1136
2017-02-27T12:26:07.867Z,1268
2017-02-27T12:27:16.796Z,1228
2017-02-27T12:28:25.708Z,1236
2017-02-27T12:29:34.607Z,1224
2017-02-27T12:30:43.505Z,1264
2017-02-27T12:31:52.397Z,1320
2017-02-27T12:33:01.692Z,1204
2017-02-27T12:34:10.578Z,1208
2017-02-27T12:35:19.477Z,1200
2017-02-27T12:36:28.376Z,1212
2017-02-27T12:37:37.265Z,1212
2017-02-27T12:38:46.180Z,1172
2017-02-27T12:39:55.468Z,1152
2017-02-27T12:41:04.348Z,1196
2017-02-27T12:42:13.246Z,1200
2017-02-27T12:43:22.127Z,1240
2017-02-27T12:44:31.039Z,1180
2017-02-27T12:45:39.932Z,1188
2017-02-27T12:46:48.823Z,1132
2017-02-27T12:47:58.127Z,1068
2017-02-27T12:49:07.017Z,1044
2017-02-27T12:50:15.918Z,1060
2017-02-27T12:51:24.829Z,1120
2017-02-27T12:52:33.717Z,1092
2017-02-27T12:53:42.619Z,1116
2017-02-27T12:54:51.550Z,1304
2017-02-27T12:56:00.853Z,1176
2017-02-27T12:57:09.757Z,1188
2017-02-27T12:58:18.699Z,1412
2017-02-27T12:59:27.613Z,1312
2017-02-27T13:00:36.490Z,1240
2017-02-27T13:01:45.386Z,1296
2017-02-27T13:02:54.269Z,1312
2017-02-27T13:04:03.166Z,1440
2017-02-27T13:05:12.458Z,1312
2017-02-27T13:06:21.337Z,1324
2017-02-27T13:07:30.227Z,1396
2017-02-27T13:08:39.125Z,1372
2017-02-27T13:09:48.020Z,1452
2017-02-27T13:10:56.903Z,1408
2017-02-27T13:12:05.817Z,1400
2017-02-27T13:13:14.698Z,1336
2017-02-27T13:14:23.611Z,1264
2017-02-27T13:15:32.559Z,1332
2017-02-27T13:16:41.461Z,1264
2017-02-27T13:17:50.365Z,1476
2017-02-27T13:18:59.692Z,1448
2017-02-27T13:20:08.588Z,1544
2017-02-27T13:21:17.491Z,1260
2017-02-27T13:22:26.408Z,1160
2017-02-27T13:23:35.321Z,1000
2017-02-27T13:24:44.625Z,740
2017-02-27T13:25:53.529Z,664
2017-02-27T13:27:02.424Z,644
2017-02-27T13:28:11.316Z,980
2017-02-27T13:29:20.234Z,1156
2017-02-27T13:30:29.530Z,772
2017-02-27T13:31:38.432Z,1136
2017-02-27T13:32:47.358Z,1232
2017-02-27T13:33:56.282Z,888
2017-02-27T13:35:05.177Z,800
2017-02-27T13:36:14.373Z,616
2017-02-27T13:37:23.257Z,624
2017-02-27T13:38:32.146Z,892
2017-02-27T13:39:41.057Z,980
2017-02-27T13:40:49.985Z,1076
2017-02-27T13:41:58.898Z,988
2017-02-27T13:43:08.204Z,680
2017-02-27T13:44:17.092Z,724
2017-02-27T13:45:25.973Z,752
2017-02-27T13:46:34.871Z,776
2017-02-27T13:47:43.754Z,692
2017-02-27T13:48:52.653Z,636
2017-02-27T13:50:01.532Z,628
2017-02-27T13:51:10.436Z,612
2017-02-27T13:52:19.355Z,604
2017-02-27T13:53:28.681Z,608
2017-02-27T13:54:37.581Z,592
2017-02-27T13:55:46.896Z,588
2017-02-27T13:56:55.800Z,588
2017-02-27T13:58:04.710Z,588
2017-02-27T13:59:13.616Z,576
2017-02-27T14:00:22.554Z,568
2017-02-27T14:01:31.449Z,580
2017-02-27T14:02:40.336Z,656
2017-02-27T14:03:49.215Z,608
2017-02-27T14:04:58.152Z,596
2017-02-27T14:06:07.057Z,580
2017-02-27T14:07:15.976Z,576
2017-02-27T14:08:24.876Z,584
2017-02-27T14:09:33.776Z,604
2017-02-27T14:10:42.662Z,588
2017-02-27T14:11:51.549Z,580
2017-02-27T14:13:00.447Z,604
2017-02-27T14:14:09.327Z,616
2017-02-27T14:15:18.233Z,552
2017-02-27T14:16:27.136Z,616
2017-02-27T14:17:36.037Z,632
2017-02-27T14:18:44.947Z,724
2017-02-27T14:19:53.900Z,668
2017-02-27T14:21:02.799Z,752
2017-02-27T14:22:11.681Z,720
2017-02-27T14:23:20.587Z,608
2017-02-27T14:24:29.483Z,580
2017-02-27T14:25:38.378Z,568
2017-02-27T14:26:47.276Z,616
2017-02-27T14:27:56.167Z,640
2017-02-27T14:29:05.050Z,640
2017-02-27T14:30:13.952Z,592
2017-02-27T14:31:23.275Z,596
2017-02-27T14:32:32.186Z,604
2017-02-27T14:33:41.095Z,644
2017-02-27T14:34:49.983Z,732
2017-02-27T14:35:58.866Z,824
2017-02-27T14:37:07.791Z,1200
2017-02-27T14:38:16.667Z,1040
2017-02-27T14:39:25.568Z,856
2017-02-27T14:40:34.497Z,896
2017-02-27T14:41:43.383Z,1036
2017-02-27T14:42:52.263Z,972
2017-02-27T14:44:01.151Z,960
2017-02-27T14:45:10.058Z,748
2017-02-27T14:46:18.947Z,644
2017-02-27T14:47:27.839Z,648
2017-02-27T14:48:36.749Z,772
2017-02-27T14:49:45.660Z,744
2017-02-27T14:50:54.567Z,644
2017-02-27T14:52:03.456Z,640
2017-02-27T14:53:12.372Z,704
2017-02-27T14:54:21.275Z,564
2017-02-27T14:55:30.179Z,580
2017-02-27T14:56:39.075Z,604
2017-02-27T14:57:47.986Z,696
2017-02-27T14:58:56.888Z,800
2017-02-27T15:00:05.772Z,764
2017-02-27T15:01:14.663Z,740
2017-02-27T15:02:23.587Z,656
2017-02-27T15:03:32.482Z,592
2017-02-27T15:04:41.373Z,576
2017-02-27T15:05:50.261Z,528
2017-02-27T15:06:59.149Z,604
2017-02-27T15:08:08.076Z,664
2017-02-27T15:09:16.975Z,736
2017-02-27T15:10:25.874Z,588
2017-02-27T15:11:34.762Z,664
2017-02-27T15:12:43.663Z,576
2017-02-27T15:13:52.579Z,544
2017-02-27T15:15:01.490Z,504
2017-02-27T15:16:10.391Z,492
2017-02-27T15:17:19.271Z,612
2017-02-27T15:18:28.173Z,600
2017-02-27T15:19:37.109Z,464
2017-02-27T15:20:46.021Z,440
2017-02-27T15:21:54.934Z,540
2017-02-27T15:23:03.826Z,616
2017-02-27T15:24:12.714Z,600
2017-02-27T15:25:21.601Z,612
2017-02-27T15:26:30.518Z,632
2017-02-27T15:27:39.412Z,592
2017-02-27T15:28:48.312Z,476
2017-02-27T15:29:57.215Z,568
2017-02-27T15:31:06.107Z,536
2017-02-27T15:32:15.030Z,616
2017-02-27T15:33:23.936Z,472
2017-02-27T15:34:32.828Z,416
2017-02-27T15:35:41.730Z,376
2017-02-27T15:36:50.642Z,360
2017-02-27T15:37:59.537Z,340
2017-02-27T15:39:08.436Z,340
2017-02-27T15:40:19.259Z,348
2017-02-27T15:41:29.358Z,392
2017-02-27T15:42:38.335Z,464
2017-02-27T15:43:47.223Z,492
2017-02-27T15:44:56.111Z,352
2017-02-27T15:46:05.029Z,384
2017-02-27T15:47:13.937Z,456
2017-02-27T15:48:22.842Z,364
2017-02-27T15:49:31.728Z,288
2017-02-27T15:50:40.615Z,280
2017-02-27T15:51:49.559Z,276
2017-02-27T15:52:58.464Z,268
2017-02-27T15:54:07.361Z,264
2017-02-27T15:55:16.241Z,252
2017-02-27T15:56:25.149Z,248
2017-02-27T15:57:34.081Z,240
2017-02-27T15:58:42.996Z,232
2017-02-27T15:59:52.316Z,224
2017-02-27T16:01:01.625Z,208
2017-02-27T16:02:11.215Z,196
2017-02-27T16:03:20.853Z,192
2017-02-27T16:04:30.168Z,176
2017-02-27T16:05:39.046Z,172
2017-02-27T16:06:47.968Z,156
2017-02-27T16:07:56.878Z,144
2017-02-27T16:09:05.791Z,136
2017-02-27T16:10:14.688Z,128
2017-02-27T16:11:23.597Z,120
2017-02-27T16:12:32.505Z,112
2017-02-27T16:13:41.434Z,108
2017-02-27T16:14:50.734Z,108
2017-02-27T16:15:59.636Z,100
2017-02-27T16:17:08.552Z,96
2017-02-27T16:18:17.440Z,92
2017-02-27T16:19:26.318Z,84
2017-02-27T16:20:35.348Z,80
2017-02-27T16:21:44.250Z,76
2017-02-27T16:22:53.154Z,72